Waf_motion — 4RBK — position and weather

sailwx.info

Track history (hours):
 
Tides and Currents Weather Stations Pressure Air Temp Water Temp Dewpoint Dewpoint Depression Visibility Wind Speed Wind Dir Waves Ship Positions

Waf_motion

Last reported at 2016-Feb-01 08:23 UTC. Time now 2016-Feb-07 04:00 UTC.
Position N 26°42' W 014°47'.

Length 140 m; draft 8.7 m.

Type: Ship (hazmat cat A). MMSI: 417222324.

Date/timePositionNaut miles runAvg speedWind from/ knotsBaromVisibWave heightAir tempDewpointWater temp
2016-Feb-01 08:23N 26°42' W 014°47'1214.8
2016-Feb-01 07:34N 26°52' W 014°38'1514.8
2016-Feb-01 06:33N 27°03' W 014°27'1414.6
2016-Feb-01 05:34N 27°14' W 014°17'1414.4
2016-Feb-01 04:33N 27°26' W 014°06'1514.7
2016-Feb-01 03:34N 27°36' W 013°55'1515.2
2016-Feb-01 02:34N 27°46' W 013°42'1515.0
2016-Feb-01 01:33N 27°56' W 013°30'2014.9
2016-Feb-01 00:15N 28°12' W 013°17'1014.9
2016-Jan-31 23:33N 28°22' W 013°12'4514.7
2016-Jan-31 20:31N 29°01' W 012°47'1414.5
2016-Jan-31 19:32N 29°13' W 012°38'1414.1
2016-Jan-31 18:33N 29°25' W 012°30'45713.8
2016-Jan-30 09:27N 36°44' W 010°00'1414.2
2016-Jan-30 08:30N 36°57' W 009°60'1313.8
2016-Jan-30 07:33N 37°10' W 009°60'1414.1
2016-Jan-30 06:33N 37°24' W 010°00'1414.3
2016-Jan-30 05:33N 37°39' W 010°00'1514.5
2016-Jan-30 04:30N 37°54' W 010°00'2814.1
2016-Jan-30 02:30N 38°22' W 010°05'1514.5
2016-Jan-30 01:30N 38°36' W 010°06'1213.0
2016-Jan-30 00:33N 38°49' W 010°07'1414.3
2016-Jan-29 23:32N 39°03' W 010°07'1515.3
2016-Jan-29 22:33N 39°18' W 010°08'1414.2
2016-Jan-29 21:33N 39°32' W 010°08'1414.5
2016-Jan-29 20:33N 39°47' W 010°08'1414.5
2016-Jan-29 19:33N 40°01' W 010°08'2814.1
2016-Jan-29 17:33N 40°30' W 010°07'1414.2
2016-Jan-29 16:33N 40°44' W 010°07'1514.7
2016-Jan-29 15:33N 40°58' W 010°07'1513.9
2016-Jan-29 14:30N 41°13' W 010°07'1313.4
2016-Jan-29 13:33N 41°26' W 010°07'1414.1
2016-Jan-29 12:32N 41°40' W 010°07'1414.3
2016-Jan-29 11:32N 41°54' W 010°07'  
2016-Jan-27 00:33N 49°32' W 000°16'1111.3
2016-Jan-26 23:33N 49°27' E 000°00'1110.9
2016-Jan-26 22:34N 49°26' E 000°17'10 0.2
2016-Jan-24 20:21N 49°28' E 000°32'911.0
2016-Jan-24 19:34N 49°26' E 000°19'1212.1
2016-Jan-24 18:33N 49°27' E 000°00'8 7.7
2016-Jan-24 17:33N 49°30' W 000°11'0 0.2
2016-Jan-24 16:31N 49°30' W 000°11'0 0.0
2016-Jan-24 15:31N 49°30' W 000°11'0 0.0
2016-Jan-24 14:22N 49°30' W 000°11'0 0.0
2016-Jan-24 13:28N 49°30' W 000°11'2 1.7
2016-Jan-24 12:33N 49°31' W 000°13'8 8.5
2016-Jan-24 11:33N 49°35' W 000°24'6310.5
2016-Jan-24 05:31N 50°33' E 000°17'1513.3
2016-Jan-24 04:23N 50°38' E 000°40'1113.3
2016-Jan-24 03:33N 50°44' E 000°54'1212.5
2016-Jan-24 02:33N 50°51' E 001°10'1111.0
2016-Jan-24 01:33N 50°59' E 001°23'10 9.8
2016-Jan-24 00:33N 51°06' E 001°34'10 9.8
2016-Jan-23 23:34N 51°13' E 001°45'1211.7
2016-Jan-23 22:33N 51°22' E 001°56'1111.4
2016-Jan-23 21:33N 51°21' E 002°14'1414.0
2016-Jan-23 20:32N 51°23' E 002°37'1313.4
2016-Jan-23 19:33N 51°23' E 002°58'1413.6
2016-Jan-23 18:34N 51°24' E 003°19'1313.4
2016-Jan-23 17:33N 51°26' E 003°41'1110.7
2016-Jan-23 16:33N 51°25' E 003°58'1010.0
2016-Jan-23 15:33N 51°22' E 004°13'3 2.8
2016-Jan-23 14:33N 51°21' E 004°17'1 1.5
2016-Jan-23 13:33N 51°20' E 004°18'4 3.5
2016-Jan-23 12:31N 51°16' E 004°21'0 0.0
2016-Jan-23 11:31N 51°16' E 004°21'0 0.0
2016-Jan-23 10:31N 51°16' E 004°21'0 0.0
2016-Jan-23 09:31N 51°16' E 004°21'0 0.0
2016-Jan-23 08:31N 51°16' E 004°21'0 0.0
2016-Jan-23 07:31N 51°16' E 004°21'0 0.0
2016-Jan-23 06:31N 51°16' E 004°21'0 0.0
2016-Jan-23 05:31N 51°16' E 004°21'0 0.0
2016-Jan-23 04:31N 51°16' E 004°21'0 0.0
2016-Jan-23 03:31N 51°16' E 004°21'0 0.0
2016-Jan-23 02:31N 51°16' E 004°21'0 0.0
2016-Jan-23 01:31N 51°16' E 004°21'0 0.0
2016-Jan-23 00:28N 51°16' E 004°21'0 0.0
2016-Jan-22 23:31N 51°16' E 004°21'0 0.0
2016-Jan-22 22:31N 51°16' E 004°21'0 0.0
2016-Jan-22 21:31N 51°16' E 004°21'0 0.0
2016-Jan-22 20:31N 51°16' E 004°21'0 0.0
2016-Jan-22 19:31N 51°16' E 004°21'0 0.2
2016-Jan-22 18:33N 51°16' E 004°21'3 2.5
2016-Jan-22 17:32N 51°15' E 004°24'0 0.0
2016-Jan-22 16:32N 51°15' E 004°24'0 0.0
2016-Jan-22 15:32N 51°15' E 004°24'0 0.0
2016-Jan-22 14:32N 51°15' E 004°24'0 0.0
2016-Jan-22 13:32N 51°15' E 004°24'0 0.0
2016-Jan-22 12:32N 51°15' E 004°24'0 0.0
2016-Jan-22 11:32N 51°15' E 004°24'0 0.0
2016-Jan-22 10:32N 51°15' E 004°24'0 0.0
2016-Jan-22 09:32N 51°15' E 004°24'0 0.0
2016-Jan-22 08:32N 51°15' E 004°24'  
Track history (hours):
 
Tides and Currents Weather Stations Pressure Air Temp Water Temp Dewpoint Dewpoint Depression Visibility Wind Speed Wind Dir Waves Ship Positions

Waf_motion

Last reported at 2016-Feb-01 08:23 UTC. Time now 2016-Feb-07 04:00 UTC.
Position N 26°42' W 014°47'.

Length 140 m; draft 8.7 m.

Type: Ship (hazmat cat A). MMSI: 417222324.

Date/timePositionNaut miles runAvg speedWind from/ knotsBaromVisibWave heightAir tempDewpointWater temp
2016-Feb-01 08:23N 26°42' W 014°47'1214.8
2016-Feb-01 07:34N 26°52' W 014°38'1514.8
2016-Feb-01 06:33N 27°03' W 014°27'1414.6
2016-Feb-01 05:34N 27°14' W 014°17'1414.4
2016-Feb-01 04:33N 27°26' W 014°06'1514.7
2016-Feb-01 03:34N 27°36' W 013°55'1515.2
2016-Feb-01 02:34N 27°46' W 013°42'1515.0
2016-Feb-01 01:33N 27°56' W 013°30'2014.9
2016-Feb-01 00:15N 28°12' W 013°17'1014.9
2016-Jan-31 23:33N 28°22' W 013°12'4514.7
2016-Jan-31 20:31N 29°01' W 012°47'1414.5
2016-Jan-31 19:32N 29°13' W 012°38'1414.1
2016-Jan-31 18:33N 29°25' W 012°30'45713.8
2016-Jan-30 09:27N 36°44' W 010°00'1414.2
2016-Jan-30 08:30N 36°57' W 009°60'1313.8
2016-Jan-30 07:33N 37°10' W 009°60'1414.1
2016-Jan-30 06:33N 37°24' W 010°00'1414.3
2016-Jan-30 05:33N 37°39' W 010°00'1514.5
2016-Jan-30 04:30N 37°54' W 010°00'2814.1
2016-Jan-30 02:30N 38°22' W 010°05'1514.5
2016-Jan-30 01:30N 38°36' W 010°06'1213.0
2016-Jan-30 00:33N 38°49' W 010°07'1414.3
2016-Jan-29 23:32N 39°03' W 010°07'1515.3
2016-Jan-29 22:33N 39°18' W 010°08'1414.2
2016-Jan-29 21:33N 39°32' W 010°08'1414.5
2016-Jan-29 20:33N 39°47' W 010°08'1414.5
2016-Jan-29 19:33N 40°01' W 010°08'2814.1
2016-Jan-29 17:33N 40°30' W 010°07'1414.2
2016-Jan-29 16:33N 40°44' W 010°07'1514.7
2016-Jan-29 15:33N 40°58' W 010°07'1513.9
2016-Jan-29 14:30N 41°13' W 010°07'1313.4
2016-Jan-29 13:33N 41°26' W 010°07'1414.1
2016-Jan-29 12:32N 41°40' W 010°07'1414.3
2016-Jan-29 11:32N 41°54' W 010°07'  
2016-Jan-27 00:33N 49°32' W 000°16'1111.3
2016-Jan-26 23:33N 49°27' E 000°00'1110.9
2016-Jan-26 22:34N 49°26' E 000°17'10 0.2
2016-Jan-24 20:21N 49°28' E 000°32'911.0
2016-Jan-24 19:34N 49°26' E 000°19'1212.1
2016-Jan-24 18:33N 49°27' E 000°00'8 7.7
2016-Jan-24 17:33N 49°30' W 000°11'0 0.2
2016-Jan-24 16:31N 49°30' W 000°11'0 0.0
2016-Jan-24 15:31N 49°30' W 000°11'0 0.0
2016-Jan-24 14:22N 49°30' W 000°11'0 0.0
2016-Jan-24 13:28N 49°30' W 000°11'2 1.7
2016-Jan-24 12:33N 49°31' W 000°13'8 8.5
2016-Jan-24 11:33N 49°35' W 000°24'6310.5
2016-Jan-24 05:31N 50°33' E 000°17'1513.3
2016-Jan-24 04:23N 50°38' E 000°40'1113.3
2016-Jan-24 03:33N 50°44' E 000°54'1212.5
2016-Jan-24 02:33N 50°51' E 001°10'1111.0
2016-Jan-24 01:33N 50°59' E 001°23'10 9.8
2016-Jan-24 00:33N 51°06' E 001°34'10 9.8
2016-Jan-23 23:34N 51°13' E 001°45'1211.7
2016-Jan-23 22:33N 51°22' E 001°56'1111.4
2016-Jan-23 21:33N 51°21' E 002°14'1414.0
2016-Jan-23 20:32N 51°23' E 002°37'1313.4
2016-Jan-23 19:33N 51°23' E 002°58'1413.6
2016-Jan-23 18:34N 51°24' E 003°19'1313.4
2016-Jan-23 17:33N 51°26' E 003°41'1110.7
2016-Jan-23 16:33N 51°25' E 003°58'1010.0
2016-Jan-23 15:33N 51°22' E 004°13'3 2.8
2016-Jan-23 14:33N 51°21' E 004°17'1 1.5
2016-Jan-23 13:33N 51°20' E 004°18'4 3.5
2016-Jan-23 12:31N 51°16' E 004°21'0 0.0
2016-Jan-23 11:31N 51°16' E 004°21'0 0.0
2016-Jan-23 10:31N 51°16' E 004°21'0 0.0
2016-Jan-23 09:31N 51°16' E 004°21'0 0.0
2016-Jan-23 08:31N 51°16' E 004°21'0 0.0
2016-Jan-23 07:31N 51°16' E 004°21'0 0.0
2016-Jan-23 06:31N 51°16' E 004°21'0 0.0
2016-Jan-23 05:31N 51°16' E 004°21'0 0.0
2016-Jan-23 04:31N 51°16' E 004°21'0 0.0
2016-Jan-23 03:31N 51°16' E 004°21'0 0.0
2016-Jan-23 02:31N 51°16' E 004°21'0 0.0
2016-Jan-23 01:31N 51°16' E 004°21'0 0.0
2016-Jan-23 00:28N 51°16' E 004°21'0 0.0
2016-Jan-22 23:31N 51°16' E 004°21'0 0.0
2016-Jan-22 22:31N 51°16' E 004°21'0 0.0
2016-Jan-22 21:31N 51°16' E 004°21'0 0.0
2016-Jan-22 20:31N 51°16' E 004°21'0 0.0
2016-Jan-22 19:31N 51°16' E 004°21'0 0.2
2016-Jan-22 18:33N 51°16' E 004°21'3 2.5
2016-Jan-22 17:32N 51°15' E 004°24'0 0.0
2016-Jan-22 16:32N 51°15' E 004°24'0 0.0
2016-Jan-22 15:32N 51°15' E 004°24'0 0.0
2016-Jan-22 14:32N 51°15' E 004°24'0 0.0
2016-Jan-22 13:32N 51°15' E 004°24'0 0.0
2016-Jan-22 12:32N 51°15' E 004°24'0 0.0
2016-Jan-22 11:32N 51°15' E 004°24'0 0.0
2016-Jan-22 10:32N 51°15' E 004°24'0 0.0
2016-Jan-22 09:32N 51°15' E 004°24'0 0.0
2016-Jan-22 08:32N 51°15' E 004°24'  

Dump ship's entire track history